Terminal Aerodrome Forecast
Issued by NWS

Home | Current Version | Previous Version | Text Only | Print | Product List | Glossary On
Versions: 1 2 3 4 5 6 7 8 9 10 11 12 13 14 15 16 17 18 19 20 21 22 23 24 25 26 27 28 29 30 31 32 33 34
000
FTUS44 KHGX 310520
TAFUTS
TAF
KUTS 310520Z 3106/0106 17002KT P6SM FEW020 BKN250
     FM311300 16004KT P6SM BKN015
     FM311500 16007KT P6SM SCT030 BKN080 BKN250
      TEMPO 3117/3121 SHRA BKN030 OVC060
     FM312100 14011KT P6SM VCTS SCT040CB BKN150 PROB30 3121/3124
      TSRA
     FM010100 15008KT P6SM FEW100 BKN250=

USA.gov is the U.S. government's official web portal to all federal, state and local government web resources and services.